sensor_id;sensor_type;location;lat;lon;timestamp;pressure;altitude;pressure_sealevel;temperature
15144;BMP180;7672;50.834;6.286;2023-06-05T00:00:25;100187.19;;;16.60
15144;BMP180;7672;50.834;6.286;2023-06-05T00:02:52;100177.06;;;16.56
15144;BMP180;7672;50.834;6.286;2023-06-05T00:05:19;100183.06;;;16.52
15144;BMP180;7672;50.834;6.286;2023-06-05T00:07:46;100178.88;;;16.48
15144;BMP180;7672;50.834;6.286;2023-06-05T00:10:13;100183.16;;;16.44
15144;BMP180;7672;50.834;6.286;2023-06-05T00:12:40;100189.97;;;16.42
15144;BMP180;7672;50.834;6.286;2023-06-05T00:15:08;100189.16;;;16.40
15144;BMP180;7672;50.834;6.286;2023-06-05T00:17:36;100190.91;;;16.37
15144;BMP180;7672;50.834;6.286;2023-06-05T00:20:05;100187.50;;;16.35
15144;BMP180;7672;50.834;6.286;2023-06-05T00:22:37;100186.72;;;16.31
15144;BMP180;7672;50.834;6.286;2023-06-05T00:25:06;100184.19;;;16.30
15144;BMP180;7672;50.834;6.286;2023-06-05T00:27:34;100181.63;;;16.28
15144;BMP180;7672;50.834;6.286;2023-06-05T00:30:01;100179.09;;;16.27
15144;BMP180;7672;50.834;6.286;2023-06-05T00:32:29;100178.25;;;16.23
15144;BMP180;7672;50.834;6.286;2023-06-05T00:34:56;100181.69;;;16.22
15144;BMP180;7672;50.834;6.286;2023-06-05T00:37:24;100185.94;;;16.20
15144;BMP180;7672;50.834;6.286;2023-06-05T00:39:52;100184.25;;;16.19
15144;BMP180;7672;50.834;6.286;2023-06-05T00:42:19;100177.44;;;16.18
15144;BMP180;7672;50.834;6.286;2023-06-05T00:44:46;100178.34;;;16.14
15144;BMP180;7672;50.834;6.286;2023-06-05T00:47:16;100182.63;;;16.12
15144;BMP180;7672;50.834;6.286;2023-06-05T00:49:44;100186.88;;;16.12
15144;BMP180;7672;50.834;6.286;2023-06-05T00:52:11;100185.19;;;16.09
15144;BMP180;7672;50.834;6.286;2023-06-05T00:54:40;100181.84;;;16.08
15144;BMP180;7672;50.834;6.286;2023-06-05T00:57:08;100187.81;;;16.05
15144;BMP180;7672;50.834;6.286;2023-06-05T00:59:37;100185.28;;;16.04
15144;BMP180;7672;50.834;6.286;2023-06-05T01:02:04;100181.91;;;16.02
15144;BMP180;7672;50.834;6.286;2023-06-05T01:04:31;100183.63;;;16.00
15144;BMP180;7672;50.834;6.286;2023-06-05T01:07:00;100181.94;;;15.96
15144;BMP180;7672;50.834;6.286;2023-06-05T01:09:29;100182.81;;;15.93
15144;BMP180;7672;50.834;6.286;2023-06-05T01:12:20;100182.84;;;15.90
15144;BMP180;7672;50.834;6.286;2023-06-05T01:14:53;100183.78;;;15.82
15144;BMP180;7672;50.834;6.286;2023-06-05T01:17:28;100176.19;;;15.77
15144;BMP180;7672;50.834;6.286;2023-06-05T01:19:57;100174.56;;;15.72
15144;BMP180;7672;50.834;6.286;2023-06-05T01:22:26;100184.75;;;15.70
15144;BMP180;7672;50.834;6.286;2023-06-05T01:24:53;100176.28;;;15.65
15144;BMP180;7672;50.834;6.286;2023-06-05T01:27:49;100169.56;;;15.58
15144;BMP180;7672;50.834;6.286;2023-06-05T01:30:52;100176.38;;;15.55
15144;BMP180;7672;50.834;6.286;2023-06-05T01:33:31;100168.81;;;15.49
15144;BMP180;7672;50.834;6.286;2023-06-05T01:36:02;100175.59;;;15.48
15144;BMP180;7672;50.834;6.286;2023-06-05T01:38:36;100169.69;;;15.47
15144;BMP180;7672;50.834;6.286;2023-06-05T01:41:04;100173.09;;;15.46
15144;BMP180;7672;50.834;6.286;2023-06-05T01:43:33;100173.09;;;15.46
15144;BMP180;7672;50.834;6.286;2023-06-05T01:46:05;100168.00;;;15.44
15144;BMP180;7672;50.834;6.286;2023-06-05T01:48:35;100166.31;;;15.43
15144;BMP180;7672;50.834;6.286;2023-06-05T01:51:02;100168.84;;;15.43
15144;BMP180;7672;50.834;6.286;2023-06-05T01:53:30;100168.88;;;15.42
15144;BMP180;7672;50.834;6.286;2023-06-05T01:55:57;100170.56;;;15.41
15144;BMP180;7672;50.834;6.286;2023-06-05T01:58:25;100159.53;;;15.41
15144;BMP180;7672;50.834;6.286;2023-06-05T02:00:53;100166.34;;;15.39
15144;BMP180;7672;50.834;6.286;2023-06-05T02:03:21;100161.28;;;15.36
15144;BMP180;7672;50.834;6.286;2023-06-05T02:05:48;100168.06;;;15.34
15144;BMP180;7672;50.834;6.286;2023-06-05T02:08:15;100160.47;;;15.29
15144;BMP180;7672;50.834;6.286;2023-06-05T02:10:46;100163.91;;;15.25
15144;BMP180;7672;50.834;6.286;2023-06-05T02:13:13;100152.88;;;15.22
15144;BMP180;7672;50.834;6.286;2023-06-05T02:15:46;100153.75;;;15.16
15144;BMP180;7672;50.834;6.286;2023-06-05T02:18:16;100152.06;;;15.12
15144;BMP180;7672;50.834;6.286;2023-06-05T02:20:44;100150.41;;;15.07
15144;BMP180;7672;50.834;6.286;2023-06-05T02:23:11;100152.13;;;15.02
15144;BMP180;7672;50.834;6.286;2023-06-05T02:25:38;100154.72;;;14.97
15144;BMP180;7672;50.834;6.286;2023-06-05T02:28:05;100157.31;;;14.91
15144;BMP180;7672;50.834;6.286;2023-06-05T02:30:32;100159.03;;;14.88
15144;BMP180;7672;50.834;6.286;2023-06-05T02:33:00;100157.34;;;14.85
15144;BMP180;7672;50.834;6.286;2023-06-05T02:35:28;100157.38;;;14.81
15144;BMP180;7672;50.834;6.286;2023-06-05T02:37:56;100148.06;;;14.77
15144;BMP180;7672;50.834;6.286;2023-06-05T02:40:24;100156.56;;;14.76
15144;BMP180;7672;50.834;6.286;2023-06-05T02:42:52;100151.47;;;14.72
15144;BMP180;7672;50.834;6.286;2023-06-05T02:45:19;100154.00;;;14.73
15144;BMP180;7672;50.834;6.286;2023-06-05T02:47:48;100147.22;;;14.71
15144;BMP180;7672;50.834;6.286;2023-06-05T02:50:15;100151.50;;;14.70
15144;BMP180;7672;50.834;6.286;2023-06-05T02:52:47;100144.72;;;14.66
15144;BMP180;7672;50.834;6.286;2023-06-05T02:55:21;100146.44;;;14.64
15144;BMP180;7672;50.834;6.286;2023-06-05T02:57:50;100145.63;;;14.61
15144;BMP180;7672;50.834;6.286;2023-06-05T03:00:23;100151.56;;;14.58
15144;BMP180;7672;50.834;6.286;2023-06-05T03:02:54;100148.19;;;14.56
15144;BMP180;7672;50.834;6.286;2023-06-05T03:05:27;100141.41;;;14.54
15144;BMP180;7672;50.834;6.286;2023-06-05T03:08:00;100143.13;;;14.52
15144;BMP180;7672;50.834;6.286;2023-06-05T03:10:29;100141.41;;;14.52
15144;BMP180;7672;50.834;6.286;2023-06-05T03:12:56;100140.56;;;14.50
15144;BMP180;7672;50.834;6.286;2023-06-05T03:15:27;100143.97;;;14.49
15144;BMP180;7672;50.834;6.286;2023-06-05T03:17:55;100136.34;;;14.46
15144;BMP180;7672;50.834;6.286;2023-06-05T03:20:22;100149.06;;;14.46
15144;BMP180;7672;50.834;6.286;2023-06-05T03:22:50;100138.09;;;14.43
15144;BMP180;7672;50.834;6.286;2023-06-05T03:25:17;100138.06;;;14.41
15144;BMP180;7672;50.834;6.286;2023-06-05T03:27:48;100143.16;;;14.41
15144;BMP180;7672;50.834;6.286;2023-06-05T03:30:16;100140.63;;;14.40
15144;BMP180;7672;50.834;6.286;2023-06-05T03:32:48;100136.38;;;14.37
15144;BMP180;7672;50.834;6.286;2023-06-05T03:35:17;100139.78;;;14.36
15144;BMP180;7672;50.834;6.286;2023-06-05T03:37:44;100138.94;;;14.36
15144;BMP180;7672;50.834;6.286;2023-06-05T03:40:12;100137.25;;;14.38
15144;BMP180;7672;50.834;6.286;2023-06-05T03:42:41;100137.25;;;14.39
15144;BMP180;7672;50.834;6.286;2023-06-05T03:45:09;100142.31;;;14.41
15144;BMP180;7672;50.834;6.286;2023-06-05T03:47:38;100144.00;;;14.45
15144;BMP180;7672;50.834;6.286;2023-06-05T03:50:08;100144.84;;;14.47
15144;BMP180;7672;50.834;6.286;2023-06-05T03:52:39;100141.44;;;14.51
15144;BMP180;7672;50.834;6.286;2023-06-05T03:55:08;100143.94;;;14.55
15144;BMP180;7672;50.834;6.286;2023-06-05T03:57:37;100143.91;;;14.61
15144;BMP180;7672;50.834;6.286;2023-06-05T04:00:11;100149.00;;;14.66
15144;BMP180;7672;50.834;6.286;2023-06-05T04:02:51;100142.16;;;14.69
15144;BMP180;7672;50.834;6.286;2023-06-05T04:05:20;100140.44;;;14.77
15144;BMP180;7672;50.834;6.286;2023-06-05T04:07:47;100148.00;;;14.84
15144;BMP180;7672;50.834;6.286;2023-06-05T04:10:14;100152.19;;;14.93
15144;BMP180;7672;50.834;6.286;2023-06-05T04:12:41;100148.75;;;15.01
15144;BMP180;7672;50.834;6.286;2023-06-05T04:15:09;100152.94;;;15.13
15144;BMP180;7672;50.834;6.286;2023-06-05T04:17:38;100149.50;;;15.21
15144;BMP180;7672;50.834;6.286;2023-06-05T04:20:08;100155.34;;;15.35
15144;BMP180;7672;50.834;6.286;2023-06-05T04:22:45;100159.47;;;15.49
15144;BMP180;7672;50.834;6.286;2023-06-05T04:25:15;100145.75;;;15.62
15144;BMP180;7672;50.834;6.286;2023-06-05T04:27:46;100154.09;;;15.78
15144;BMP180;7672;50.834;6.286;2023-06-05T04:30:15;100153.91;;;15.96
15144;BMP180;7672;50.834;6.286;2023-06-05T04:32:43;100149.50;;;16.09
15144;BMP180;7672;50.834;6.286;2023-06-05T04:35:22;100149.34;;;16.24
15144;BMP180;7672;50.834;6.286;2023-06-05T04:37:49;100150.88;;;16.40
15144;BMP180;7672;50.834;6.286;2023-06-05T04:40:19;100157.44;;;16.58
15144;BMP180;7672;50.834;6.286;2023-06-05T04:42:50;100157.22;;;16.74
15144;BMP180;7672;50.834;6.286;2023-06-05T04:45:23;100143.38;;;16.91
15144;BMP180;7672;50.834;6.286;2023-06-05T04:47:51;100150.75;;;17.11
15144;BMP180;7672;50.834;6.286;2023-06-05T04:50:26;100152.19;;;17.31
15144;BMP180;7672;50.834;6.286;2023-06-05T04:53:07;100144.97;;;17.52
15144;BMP180;7672;50.834;6.286;2023-06-05T04:55:36;100152.25;;;17.75
15144;BMP180;7672;50.834;6.286;2023-06-05T04:58:03;100148.44;;;17.96
15144;BMP180;7672;50.834;6.286;2023-06-05T05:00:32;100150.63;;;18.17
15144;BMP180;7672;50.834;6.286;2023-06-05T05:03:01;100140.81;;;18.39
15144;BMP180;7672;50.834;6.286;2023-06-05T05:05:30;100148.88;;;18.61
15144;BMP180;7672;50.834;6.286;2023-06-05T05:07:58;100142.41;;;18.83
15144;BMP180;7672;50.834;6.286;2023-06-05T05:10:31;100150.50;;;19.03
15144;BMP180;7672;50.834;6.286;2023-06-05T05:12:58;100147.50;;;19.23
15144;BMP180;7672;50.834;6.286;2023-06-05T05:15:29;100142.75;;;19.42
15144;BMP180;7672;50.834;6.286;2023-06-05T05:17:57;100149.09;;;19.61
15144;BMP180;7672;50.834;6.286;2023-06-05T05:20:25;100152.91;;;19.79
15144;BMP180;7672;50.834;6.286;2023-06-05T05:22:52;100155.16;;;19.92
15144;BMP180;7672;50.834;6.286;2023-06-05T05:25:19;100160.72;;;20.07
15144;BMP180;7672;50.834;6.286;2023-06-05T05:27:46;100152.59;;;20.22
15144;BMP180;7672;50.834;6.286;2023-06-05T05:30:15;100156.47;;;20.37
15144;BMP180;7672;50.834;6.286;2023-06-05T05:32:42;100159.53;;;20.49
15144;BMP180;7672;50.834;6.286;2023-06-05T05:35:11;100160.06;;;20.60
15144;BMP180;7672;50.834;6.286;2023-06-05T05:37:38;100158.84;;;20.73
15144;BMP180;7672;50.834;6.286;2023-06-05T05:40:06;100157.66;;;20.84
15144;BMP180;7672;50.834;6.286;2023-06-05T05:42:34;100159.81;;;20.98
15144;BMP180;7672;50.834;6.286;2023-06-05T05:45:01;100157.59;;;21.13
15144;BMP180;7672;50.834;6.286;2023-06-05T05:47:29;100156.22;;;21.29
15144;BMP180;7672;50.834;6.286;2023-06-05T05:49:56;100146.34;;;21.43
15144;BMP180;7672;50.834;6.286;2023-06-05T05:52:23;100144.94;;;21.60
15144;BMP180;7672;50.834;6.286;2023-06-05T05:54:50;100152.97;;;21.75
15144;BMP180;7672;50.834;6.286;2023-06-05T05:57:18;100153.25;;;21.92
15144;BMP180;7672;50.834;6.286;2023-06-05T05:59:45;100151.81;;;22.08
15144;BMP180;7672;50.834;6.286;2023-06-05T06:02:12;100153.84;;;22.23
15144;BMP180;7672;50.834;6.286;2023-06-05T06:04:40;100157.59;;;22.39
15144;BMP180;7672;50.834;6.286;2023-06-05T06:07:07;100155.25;;;22.56
15144;BMP180;7672;50.834;6.286;2023-06-05T06:09:35;100164.03;;;22.73
15144;BMP180;7672;50.834;6.286;2023-06-05T06:12:06;100156.53;;;22.89
15144;BMP180;7672;50.834;6.286;2023-06-05T06:14:34;100160.34;;;23.02
15144;BMP180;7672;50.834;6.286;2023-06-05T06:17:02;100160.53;;;23.18
15144;BMP180;7672;50.834;6.286;2023-06-05T06:19:31;100166.84;;;23.33
15144;BMP180;7672;50.834;6.286;2023-06-05T06:21:59;100160.22;;;23.47
15144;BMP180;7672;50.834;6.286;2023-06-05T06:24:27;100160.41;;;23.63
15144;BMP180;7672;50.834;6.286;2023-06-05T06:26:54;100166.53;;;23.81
15144;BMP180;7672;50.834;6.286;2023-06-05T06:29:24;100173.44;;;24.01
15144;BMP180;7672;50.834;6.286;2023-06-05T06:31:52;100160.50;;;24.21
15144;BMP180;7672;50.834;6.286;2023-06-05T06:34:19;100170.09;;;24.37
15144;BMP180;7672;50.834;6.286;2023-06-05T06:36:46;100166.84;;;24.52
15144;BMP180;7672;50.834;6.286;2023-06-05T06:39:13;100165.28;;;24.68
15144;BMP180;7672;50.834;6.286;2023-06-05T06:41:41;100164.53;;;24.83
15144;BMP180;7672;50.834;6.286;2023-06-05T06:44:08;100165.69;;;24.95
15144;BMP180;7672;50.834;6.286;2023-06-05T06:46:35;100171.13;;;25.08
15144;BMP180;7672;50.834;6.286;2023-06-05T06:49:03;100170.31;;;25.24
15144;BMP180;7672;50.834;6.286;2023-06-05T06:51:30;100167.91;;;25.38
15144;BMP180;7672;50.834;6.286;2023-06-05T06:53:57;100164.50;;;25.54
15144;BMP180;7672;50.834;6.286;2023-06-05T06:56:24;100167.25;;;25.68
15144;BMP180;7672;50.834;6.286;2023-06-05T06:58:53;100178.47;;;25.86
15144;BMP180;7672;50.834;6.286;2023-06-05T07:01:21;100172.63;;;25.99
15144;BMP180;7672;50.834;6.286;2023-06-05T07:03:49;100177.75;;;26.16
15144;BMP180;7672;50.834;6.286;2023-06-05T07:06:16;100177.19;;;26.26
15144;BMP180;7672;50.834;6.286;2023-06-05T07:08:43;100169.66;;;26.39
15144;BMP180;7672;50.834;6.286;2023-06-05T07:11:10;100177.56;;;26.53
15144;BMP180;7672;50.834;6.286;2023-06-05T07:13:38;100177.47;;;26.70
15144;BMP180;7672;50.834;6.286;2023-06-05T07:16:05;100174.16;;;26.83
15144;BMP180;7672;50.834;6.286;2023-06-05T07:18:32;100179.38;;;26.98
15144;BMP180;7672;50.834;6.286;2023-06-05T07:20:59;100185.56;;;27.11
15144;BMP180;7672;50.834;6.286;2023-06-05T07:23:26;100175.09;;;27.28
15144;BMP180;7672;50.834;6.286;2023-06-05T07:25:54;100170.53;;;27.47
15144;BMP180;7672;50.834;6.286;2023-06-05T07:28:21;100173.59;;;27.69
15144;BMP180;7672;50.834;6.286;2023-06-05T07:30:50;100183.03;;;27.99
15144;BMP180;7672;50.834;6.286;2023-06-05T07:33:17;100174.94;;;28.33
15144;BMP180;7672;50.834;6.286;2023-06-05T07:35:58;100180.19;;;28.73
15144;BMP180;7672;50.834;6.286;2023-06-05T07:38:26;100178.00;;;29.07
15144;BMP180;7672;50.834;6.286;2023-06-05T07:40:53;100176.28;;;29.46
15144;BMP180;7672;50.834;6.286;2023-06-05T07:43:20;100173.78;;;29.84
15144;BMP180;7672;50.834;6.286;2023-06-05T07:45:47;100172.78;;;30.23
15144;BMP180;7672;50.834;6.286;2023-06-05T07:48:14;100178.28;;;30.68
15144;BMP180;7672;50.834;6.286;2023-06-05T07:50:41;100170.81;;;31.23
15144;BMP180;7672;50.834;6.286;2023-06-05T07:53:09;100179.88;;;31.77
15144;BMP180;7672;50.834;6.286;2023-06-05T07:55:36;100174.88;;;32.30
15144;BMP180;7672;50.834;6.286;2023-06-05T07:58:03;100171.75;;;32.90
15144;BMP180;7672;50.834;6.286;2023-06-05T08:00:30;100171.97;;;33.51
15144;BMP180;7672;50.834;6.286;2023-06-05T08:02:57;100173.13;;;33.99
15144;BMP180;7672;50.834;6.286;2023-06-05T08:05:25;100176.84;;;34.47
15144;BMP180;7672;50.834;6.286;2023-06-05T08:07:52;100171.53;;;35.06
15144;BMP180;7672;50.834;6.286;2023-06-05T08:10:19;100170.06;;;35.79
15144;BMP180;7672;50.834;6.286;2023-06-05T08:12:46;100163.22;;;36.50
15144;BMP180;7672;50.834;6.286;2023-06-05T08:15:13;100164.50;;;37.17
15144;BMP180;7672;50.834;6.286;2023-06-05T08:17:40;100159.31;;;37.77
15144;BMP180;7672;50.834;6.286;2023-06-05T08:20:08;100163.66;;;38.37
15144;BMP180;7672;50.834;6.286;2023-06-05T08:22:37;100159.13;;;38.88
15144;BMP180;7672;50.834;6.286;2023-06-05T08:25:07;100151.44;;;39.26
15144;BMP180;7672;50.834;6.286;2023-06-05T08:27:34;100160.06;;;39.68
15144;BMP180;7672;50.834;6.286;2023-06-05T08:30:02;100155.84;;;40.13
15144;BMP180;7672;50.834;6.286;2023-06-05T08:32:30;100157.72;;;40.59
15144;BMP180;7672;50.834;6.286;2023-06-05T08:34:57;100157.50;;;41.06
15144;BMP180;7672;50.834;6.286;2023-06-05T08:37:25;100145.88;;;41.52
15144;BMP180;7672;50.834;6.286;2023-06-05T08:39:52;100148.75;;;41.87
15144;BMP180;7672;50.834;6.286;2023-06-05T08:42:19;100159.19;;;42.03
15144;BMP180;7672;50.834;6.286;2023-06-05T08:44:47;100158.00;;;42.20
15144;BMP180;7672;50.834;6.286;2023-06-05T08:47:29;100153.09;;;42.31
15144;BMP180;7672;50.834;6.286;2023-06-05T08:50:04;100155.56;;;42.47
15144;BMP180;7672;50.834;6.286;2023-06-05T08:52:34;100152.94;;;42.83
15144;BMP180;7672;50.834;6.286;2023-06-05T08:55:06;100160.78;;;43.05
15144;BMP180;7672;50.834;6.286;2023-06-05T08:57:34;100157.81;;;43.00
15144;BMP180;7672;50.834;6.286;2023-06-05T09:00:07;100155.09;;;42.93
15144;BMP180;7672;50.834;6.286;2023-06-05T09:02:40;100143.59;;;42.87
15144;BMP180;7672;50.834;6.286;2023-06-05T09:05:11;100152.09;;;42.96
15144;BMP180;7672;50.834;6.286;2023-06-05T09:07:38;100143.19;;;42.90
15144;BMP180;7672;50.834;6.286;2023-06-05T09:10:07;100147.91;;;42.88
15144;BMP180;7672;50.834;6.286;2023-06-05T09:13:03;100145.47;;;43.07
15144;BMP180;7672;50.834;6.286;2023-06-05T09:15:33;100150.75;;;43.28
15144;BMP180;7672;50.834;6.286;2023-06-05T09:20:40;100146.06;;;43.71
15144;BMP180;7672;50.834;6.286;2023-06-05T09:23:26;100153.97;;;43.86
15144;BMP180;7672;50.834;6.286;2023-06-05T09:26:00;100148.22;;;43.82
15144;BMP180;7672;50.834;6.286;2023-06-05T09:28:29;100139.69;;;43.93
15144;BMP180;7672;50.834;6.286;2023-06-05T09:31:02;100140.00;;;44.11
15144;BMP180;7672;50.834;6.286;2023-06-05T09:33:34;100132.47;;;44.15
15144;BMP180;7672;50.834;6.286;2023-06-05T09:36:04;100138.75;;;44.07
15144;BMP180;7672;50.834;6.286;2023-06-05T09:38:32;100133.41;;;44.07
15144;BMP180;7672;50.834;6.286;2023-06-05T09:41:11;100141.00;;;44.44
15144;BMP180;7672;50.834;6.286;2023-06-05T09:43:38;100135.41;;;44.73
15144;BMP180;7672;50.834;6.286;2023-06-05T09:46:16;100133.38;;;44.81
15144;BMP180;7672;50.834;6.286;2023-06-05T09:48:52;100136.28;;;44.86
15144;BMP180;7672;50.834;6.286;2023-06-05T09:51:23;100134.25;;;45.01
15144;BMP180;7672;50.834;6.286;2023-06-05T09:53:50;100130.44;;;45.36
15144;BMP180;7672;50.834;6.286;2023-06-05T09:56:21;100130.63;;;45.47
15144;BMP180;7672;50.834;6.286;2023-06-05T09:58:51;100127.56;;;45.44
15144;BMP180;7672;50.834;6.286;2023-06-05T10:01:21;100122.00;;;45.39
15144;BMP180;7672;50.834;6.286;2023-06-05T10:04:10;100125.44;;;45.13
15144;BMP180;7672;50.834;6.286;2023-06-05T10:06:40;100126.91;;;45.16
15144;BMP180;7672;50.834;6.286;2023-06-05T10:09:09;100127.34;;;45.45
15144;BMP180;7672;50.834;6.286;2023-06-05T10:11:37;100117.28;;;45.73
15144;BMP180;7672;50.834;6.286;2023-06-05T10:14:06;100129.38;;;45.82
15144;BMP180;7672;50.834;6.286;2023-06-05T10:16:34;100121.78;;;45.79
15144;BMP180;7672;50.834;6.286;2023-06-05T10:19:03;100114.19;;;45.56
15144;BMP180;7672;50.834;6.286;2023-06-05T10:21:32;100114.41;;;45.49
15144;BMP180;7672;50.834;6.286;2023-06-05T10:24:11;100115.84;;;45.38
15144;BMP180;7672;50.834;6.286;2023-06-05T10:35:44;100112.38;;;45.70
15144;BMP180;7672;50.834;6.286;2023-06-05T10:38:19;100103.91;;;45.92
15144;BMP180;7672;50.834;6.286;2023-06-05T10:40:55;100117.44;;;45.91
15144;BMP180;7672;50.834;6.286;2023-06-05T10:43:30;100108.25;;;45.67
15144;BMP180;7672;50.834;6.286;2023-06-05T10:46:00;100095.31;;;45.32
15144;BMP180;7672;50.834;6.286;2023-06-05T10:57:03;100104.66;;;43.69
15144;BMP180;7672;50.834;6.286;2023-06-05T10:59:37;100097.38;;;43.77
15144;BMP180;7672;50.834;6.286;2023-06-05T11:07:25;100094.66;;;43.44
15144;BMP180;7672;50.834;6.286;2023-06-05T11:15:04;100083.22;;;42.52
15144;BMP180;7672;50.834;6.286;2023-06-05T11:17:39;100084.91;;;42.10
15144;BMP180;7672;50.834;6.286;2023-06-05T11:28:00;100077.06;;;40.23
15144;BMP180;7672;50.834;6.286;2023-06-05T11:30:40;100081.47;;;39.92
15144;BMP180;7672;50.834;6.286;2023-06-05T11:33:18;100078.25;;;39.43
15144;BMP180;7672;50.834;6.286;2023-06-05T11:35:49;100076.16;;;38.73
15144;BMP180;7672;50.834;6.286;2023-06-05T11:38:22;100070.19;;;37.97
15144;BMP180;7672;50.834;6.286;2023-06-05T11:40:52;100070.38;;;37.27
15144;BMP180;7672;50.834;6.286;2023-06-05T11:43:21;100057.75;;;36.69
15144;BMP180;7672;50.834;6.286;2023-06-05T11:45:55;100061.22;;;36.26
15144;BMP180;7672;50.834;6.286;2023-06-05T11:48:24;100061.34;;;35.88
15144;BMP180;7672;50.834;6.286;2023-06-05T11:50:59;100055.53;;;35.48
15144;BMP180;7672;50.834;6.286;2023-06-05T11:53:28;100058.41;;;35.08
15144;BMP180;7672;50.834;6.286;2023-06-05T11:55:57;100061.84;;;34.70
15144;BMP180;7672;50.834;6.286;2023-06-05T11:58:34;100057.06;;;34.36
15144;BMP180;7672;50.834;6.286;2023-06-05T12:01:12;100059.97;;;34.03
15144;BMP180;7672;50.834;6.286;2023-06-05T12:03:42;100053.69;;;33.65
15144;BMP180;7672;50.834;6.286;2023-06-05T12:06:10;100047.28;;;33.38
15144;BMP180;7672;50.834;6.286;2023-06-05T12:08:41;100055.53;;;33.13
15144;BMP180;7672;50.834;6.286;2023-06-05T12:11:21;100050.84;;;32.85
15144;BMP180;7672;50.834;6.286;2023-06-05T12:13:54;100040.81;;;32.59
15144;BMP180;7672;50.834;6.286;2023-06-05T12:16:35;100041.31;;;32.31
15144;BMP180;7672;50.834;6.286;2023-06-05T12:19:17;100039.31;;;32.13
15144;BMP180;7672;50.834;6.286;2023-06-05T12:21:48;100038.72;;;31.98
15144;BMP180;7672;50.834;6.286;2023-06-05T12:24:25;100036.56;;;31.82
15144;BMP180;7672;50.834;6.286;2023-06-05T12:26:59;100030.03;;;31.65
15144;BMP180;7672;50.834;6.286;2023-06-05T12:29:34;100027.03;;;31.59
15144;BMP180;7672;50.834;6.286;2023-06-05T12:32:03;100029.63;;;31.59
15144;BMP180;7672;50.834;6.286;2023-06-05T12:34:47;100021.59;;;31.62
15144;BMP180;7672;50.834;6.286;2023-06-05T12:37:29;100029.31;;;31.63
15144;BMP180;7672;50.834;6.286;2023-06-05T12:40:00;100017.88;;;31.53
15144;BMP180;7672;50.834;6.286;2023-06-05T12:42:34;100025.44;;;31.45
15144;BMP180;7672;50.834;6.286;2023-06-05T12:45:06;100016.16;;;31.30
15144;BMP180;7672;50.834;6.286;2023-06-05T12:47:35;100010.81;;;31.21
15144;BMP180;7672;50.834;6.286;2023-06-05T12:50:07;100016.47;;;31.15
15144;BMP180;7672;50.834;6.286;2023-06-05T12:52:40;100011.81;;;31.08
15144;BMP180;7672;50.834;6.286;2023-06-05T12:55:08;100008.72;;;31.03
15144;BMP180;7672;50.834;6.286;2023-06-05T12:57:37;100021.16;;;30.99
15144;BMP180;7672;50.834;6.286;2023-06-05T13:00:05;100017.84;;;30.97
15144;BMP180;7672;50.834;6.286;2023-06-05T13:02:43;100015.13;;;30.99
15144;BMP180;7672;50.834;6.286;2023-06-05T13:05:13;100006.47;;;30.98
15144;BMP180;7672;50.834;6.286;2023-06-05T13:07:41;99993.28;;;31.00
15144;BMP180;7672;50.834;6.286;2023-06-05T13:10:09;100004.22;;;31.05
15144;BMP180;7672;50.834;6.286;2023-06-05T13:12:38;100001.16;;;31.56
15144;BMP180;7672;50.834;6.286;2023-06-05T13:15:09;99989.69;;;31.46
15144;BMP180;7672;50.834;6.286;2023-06-05T13:17:37;100000.16;;;31.46
15144;BMP180;7672;50.834;6.286;2023-06-05T13:20:06;100001.81;;;31.47
15144;BMP180;7672;50.834;6.286;2023-06-05T13:22:38;99995.88;;;31.45
15144;BMP180;7672;50.834;6.286;2023-06-05T13:25:07;99989.59;;;31.36
15144;BMP180;7672;50.834;6.286;2023-06-05T13:27:35;99987.78;;;31.26
15144;BMP180;7672;50.834;6.286;2023-06-05T13:30:03;99984.28;;;31.15
15144;BMP180;7672;50.834;6.286;2023-06-05T13:32:32;99984.41;;;31.02
15144;BMP180;7672;50.834;6.286;2023-06-05T13:35:01;99986.00;;;30.92
15144;BMP180;7672;50.834;6.286;2023-06-05T13:37:28;99970.28;;;30.81
15144;BMP180;7672;50.834;6.286;2023-06-05T13:39:55;99975.94;;;30.75
15144;BMP180;7672;50.834;6.286;2023-06-05T13:42:22;99961.69;;;30.68
15144;BMP180;7672;50.834;6.286;2023-06-05T13:44:50;99962.88;;;30.65
15144;BMP180;7672;50.834;6.286;2023-06-05T13:47:17;99960.47;;;30.62
15144;BMP180;7672;50.834;6.286;2023-06-05T13:49:44;99965.00;;;30.60
15144;BMP180;7672;50.834;6.286;2023-06-05T13:52:11;99961.16;;;30.53
15144;BMP180;7672;50.834;6.286;2023-06-05T13:54:38;99960.88;;;30.45
15144;BMP180;7672;50.834;6.286;2023-06-05T13:57:07;99958.91;;;30.36
15144;BMP180;7672;50.834;6.286;2023-06-05T13:59:35;99962.91;;;30.29
15144;BMP180;7672;50.834;6.286;2023-06-05T14:02:02;99960.84;;;30.21
15144;BMP180;7672;50.834;6.286;2023-06-05T14:04:29;99957.94;;;30.13
15144;BMP180;7672;50.834;6.286;2023-06-05T14:06:56;99954.81;;;30.08
15144;BMP180;7672;50.834;6.286;2023-06-05T14:09:26;99951.75;;;30.03
15144;BMP180;7672;50.834;6.286;2023-06-05T14:11:55;99948.28;;;30.03
15144;BMP180;7672;50.834;6.286;2023-06-05T14:14:24;99954.13;;;30.06
15144;BMP180;7672;50.834;6.286;2023-06-05T14:16:51;99943.69;;;30.06
15144;BMP180;7672;50.834;6.286;2023-06-05T14:19:18;99952.56;;;30.04
15144;BMP180;7672;50.834;6.286;2023-06-05T14:21:46;99946.53;;;30.03
15144;BMP180;7672;50.834;6.286;2023-06-05T14:24:13;99946.41;;;30.05
15144;BMP180;7672;50.834;6.286;2023-06-05T14:26:41;99944.50;;;30.07
15144;BMP180;7672;50.834;6.286;2023-06-05T14:29:08;99950.56;;;30.07
15144;BMP180;7672;50.834;6.286;2023-06-05T14:31:35;99946.63;;;30.02
15144;BMP180;7672;50.834;6.286;2023-06-05T14:34:04;99943.50;;;29.97
15144;BMP180;7672;50.834;6.286;2023-06-05T14:36:32;99949.97;;;29.92
15144;BMP180;7672;50.834;6.286;2023-06-05T14:38:59;99947.88;;;29.84
15144;BMP180;7672;50.834;6.286;2023-06-05T14:41:29;99945.00;;;29.76
15144;BMP180;7672;50.834;6.286;2023-06-05T14:43:57;99948.00;;;29.70
15144;BMP180;7672;50.834;6.286;2023-06-05T14:46:44;99941.59;;;29.63
15144;BMP180;7672;50.834;6.286;2023-06-05T14:49:12;99939.91;;;29.62
15144;BMP180;7672;50.834;6.286;2023-06-05T14:51:39;99937.06;;;29.65
15144;BMP180;7672;50.834;6.286;2023-06-05T14:54:06;99945.41;;;29.70
15144;BMP180;7672;50.834;6.286;2023-06-05T14:56:33;99933.94;;;29.73
15144;BMP180;7672;50.834;6.286;2023-06-05T14:59:01;99934.47;;;29.78
15144;BMP180;7672;50.834;6.286;2023-06-05T15:01:35;99938.50;;;29.82
15144;BMP180;7672;50.834;6.286;2023-06-05T15:04:02;99934.03;;;29.84